sensor_id;sensor_type;location;lat;lon;timestamp;pressure;altitude;pressure_sealevel;temperature;humidity
28000;BME280;15328;50.860;10.562;2024-03-17T00:02:51;97169.22;;;5.68;56.65
28000;BME280;15328;50.860;10.562;2024-03-17T00:07:52;97170.22;;;5.75;57.47
28000;BME280;15328;50.860;10.562;2024-03-17T00:12:53;97170.00;;;5.93;56.36
28000;BME280;15328;50.860;10.562;2024-03-17T00:17:53;97168.53;;;5.91;56.35
28000;BME280;15328;50.860;10.562;2024-03-17T00:22:53;97160.56;;;5.99;56.93
28000;BME280;15328;50.860;10.562;2024-03-17T00:27:53;97162.22;;;6.08;56.95
28000;BME280;15328;50.860;10.562;2024-03-17T00:32:57;97165.78;;;6.15;56.80
28000;BME280;15328;50.860;10.562;2024-03-17T00:37:58;97174.03;;;6.20;56.56
28000;BME280;15328;50.860;10.562;2024-03-17T00:42:58;97169.22;;;6.24;55.27
28000;BME280;15328;50.860;10.562;2024-03-17T00:47:59;97170.56;;;6.19;55.64
28000;BME280;15328;50.860;10.562;2024-03-17T00:52:59;97165.63;;;6.16;55.78
28000;BME280;15328;50.860;10.562;2024-03-17T00:58:02;97167.16;;;6.11;56.53
28000;BME280;15328;50.860;10.562;2024-03-17T01:03:03;97165.31;;;6.11;56.43
28000;BME280;15328;50.860;10.562;2024-03-17T01:08:04;97168.78;;;6.12;56.09
28000;BME280;15328;50.860;10.562;2024-03-17T01:13:08;97170.78;;;6.02;56.20
28000;BME280;15328;50.860;10.562;2024-03-17T01:18:09;97174.25;;;6.02;55.86
28000;BME280;15328;50.860;10.562;2024-03-17T01:23:10;97171.13;;;5.99;55.57
28000;BME280;15328;50.860;10.562;2024-03-17T01:28:10;97163.25;;;5.91;55.68
28000;BME280;15328;50.860;10.562;2024-03-17T01:33:11;97159.44;;;5.85;55.75
28000;BME280;15328;50.860;10.562;2024-03-17T01:38:12;97158.97;;;5.73;55.87
28000;BME280;15328;50.860;10.562;2024-03-17T01:43:12;97157.84;;;5.68;56.34
28000;BME280;15328;50.860;10.562;2024-03-17T01:48:15;97150.94;;;5.58;56.16
28000;BME280;15328;50.860;10.562;2024-03-17T01:53:16;97152.16;;;5.48;56.93
28000;BME280;15328;50.860;10.562;2024-03-17T01:58:17;97154.78;;;5.40;57.37
28000;BME280;15328;50.860;10.562;2024-03-17T02:03:19;97146.53;;;5.43;57.29
28000;BME280;15328;50.860;10.562;2024-03-17T02:08:20;97151.63;;;5.44;57.25
28000;BME280;15328;50.860;10.562;2024-03-17T02:13:22;97144.38;;;5.38;57.43
28000;BME280;15328;50.860;10.562;2024-03-17T02:18:23;97140.44;;;5.50;57.20
28000;BME280;15328;50.860;10.562;2024-03-17T02:23:23;97127.06;;;5.44;57.64
28000;BME280;15328;50.860;10.562;2024-03-17T02:28:26;97123.59;;;5.43;57.52
28000;BME280;15328;50.860;10.562;2024-03-17T02:33:26;97121.44;;;5.55;57.23
28000;BME280;15328;50.860;10.562;2024-03-17T02:38:27;97118.81;;;5.47;57.56
28000;BME280;15328;50.860;10.562;2024-03-17T02:43:46;97116.84;;;5.41;57.73
28000;BME280;15328;50.860;10.562;2024-03-17T02:48:50;97113.03;;;5.43;57.40
28000;BME280;15328;50.860;10.562;2024-03-17T02:53:51;97109.09;;;5.39;58.00
28000;BME280;15328;50.860;10.562;2024-03-17T02:58:51;97098.06;;;5.36;57.89
28000;BME280;15328;50.860;10.562;2024-03-17T03:03:52;97101.88;;;5.33;57.10
28000;BME280;15328;50.860;10.562;2024-03-17T03:08:52;97113.59;;;5.31;57.33
28000;BME280;15328;50.860;10.562;2024-03-17T03:13:53;97106.81;;;5.20;57.90
28000;BME280;15328;50.860;10.562;2024-03-17T03:18:53;97099.41;;;5.23;58.17
28000;BME280;15328;50.860;10.562;2024-03-17T03:23:54;97099.25;;;5.25;57.80
28000;BME280;15328;50.860;10.562;2024-03-17T03:28:54;97095.09;;;5.31;57.75
28000;BME280;15328;50.860;10.562;2024-03-17T03:33:55;97099.72;;;5.28;57.59
28000;BME280;15328;50.860;10.562;2024-03-17T03:38:57;97108.31;;;5.31;57.24
28000;BME280;15328;50.860;10.562;2024-03-17T03:43:59;97105.19;;;5.27;56.60
28000;BME280;15328;50.860;10.562;2024-03-17T03:48:59;97103.06;;;5.22;56.57
28000;BME280;15328;50.860;10.562;2024-03-17T03:53:59;97107.81;;;5.19;57.26
28000;BME280;15328;50.860;10.562;2024-03-17T03:59:00;97114.25;;;5.16;57.15
28000;BME280;15328;50.860;10.562;2024-03-17T04:04:00;97109.97;;;5.15;57.28
28000;BME280;15328;50.860;10.562;2024-03-17T04:09:01;97112.78;;;5.14;56.74
28000;BME280;15328;50.860;10.562;2024-03-17T04:14:01;97105.03;;;5.20;55.96
28000;BME280;15328;50.860;10.562;2024-03-17T04:19:02;97109.31;;;5.13;56.31
28000;BME280;15328;50.860;10.562;2024-03-17T04:24:02;97114.59;;;5.05;56.35
28000;BME280;15328;50.860;10.562;2024-03-17T04:29:03;97113.94;;;5.11;56.50
28000;BME280;15328;50.860;10.562;2024-03-17T04:34:03;97117.41;;;5.04;56.62
28000;BME280;15328;50.860;10.562;2024-03-17T04:39:04;97119.56;;;5.00;56.60
28000;BME280;15328;50.860;10.562;2024-03-17T04:44:08;97118.72;;;5.08;56.79
28000;BME280;15328;50.860;10.562;2024-03-17T04:49:08;97120.38;;;5.09;56.24
28000;BME280;15328;50.860;10.562;2024-03-17T04:54:09;97125.50;;;5.02;56.96
28000;BME280;15328;50.860;10.562;2024-03-17T04:59:09;97132.41;;;5.03;56.62
28000;BME280;15328;50.860;10.562;2024-03-17T05:04:09;97135.53;;;5.07;57.41
28000;BME280;15328;50.860;10.562;2024-03-17T05:09:10;97134.38;;;5.09;57.07
28000;BME280;15328;50.860;10.562;2024-03-17T05:14:13;97141.78;;;5.14;57.15
28000;BME280;15328;50.860;10.562;2024-03-17T05:19:13;97147.25;;;5.20;57.13
28000;BME280;15328;50.860;10.562;2024-03-17T05:24:14;97144.44;;;5.22;56.88
28000;BME280;15328;50.860;10.562;2024-03-17T05:29:14;97142.78;;;5.21;56.01
28000;BME280;15328;50.860;10.562;2024-03-17T05:34:14;97155.31;;;5.11;56.04
28000;BME280;15328;50.860;10.562;2024-03-17T05:39:15;97152.38;;;4.97;56.62
28000;BME280;15328;50.860;10.562;2024-03-17T05:44:15;97159.94;;;5.01;56.32
28000;BME280;15328;50.860;10.562;2024-03-17T05:49:16;97163.88;;;4.88;56.28
28000;BME280;15328;50.860;10.562;2024-03-17T05:54:16;97167.53;;;4.95;56.98
28000;BME280;15328;50.860;10.562;2024-03-17T05:59:16;97171.28;;;4.93;56.23
28000;BME280;15328;50.860;10.562;2024-03-17T06:04:17;97180.84;;;4.86;57.03
28000;BME280;15328;50.860;10.562;2024-03-17T06:09:17;97176.06;;;4.81;56.45
28000;BME280;15328;50.860;10.562;2024-03-17T06:14:19;97181.19;;;4.83;56.64
28000;BME280;15328;50.860;10.562;2024-03-17T06:19:19;97180.72;;;4.95;56.58
28000;BME280;15328;50.860;10.562;2024-03-17T06:24:20;97176.44;;;4.94;56.59
28000;BME280;15328;50.860;10.562;2024-03-17T06:29:20;97178.91;;;4.96;57.08
28000;BME280;15328;50.860;10.562;2024-03-17T06:34:20;97173.78;;;5.11;57.20
28000;BME280;15328;50.860;10.562;2024-03-17T06:39:21;97166.38;;;5.22;57.43
28000;BME280;15328;50.860;10.562;2024-03-17T06:44:21;97165.19;;;5.33;56.97
28000;BME280;15328;50.860;10.562;2024-03-17T06:49:24;97160.19;;;5.46;56.94
28000;BME280;15328;50.860;10.562;2024-03-17T06:54:25;97164.16;;;5.58;56.70
28000;BME280;15328;50.860;10.562;2024-03-17T06:59:25;97152.22;;;5.71;56.85
28000;BME280;15328;50.860;10.562;2024-03-17T07:04:26;97152.84;;;5.89;57.02
28000;BME280;15328;50.860;10.562;2024-03-17T07:09:26;97163.19;;;6.07;56.73
28000;BME280;15328;50.860;10.562;2024-03-17T07:14:26;97160.00;;;6.19;56.54
28000;BME280;15328;50.860;10.562;2024-03-17T07:19:27;97153.00;;;6.27;56.25
28000;BME280;15328;50.860;10.562;2024-03-17T07:24:28;97146.59;;;6.52;54.92
28000;BME280;15328;50.860;10.562;2024-03-17T07:29:30;97150.84;;;6.61;55.05
28000;BME280;15328;50.860;10.562;2024-03-17T07:34:31;97136.28;;;6.88;55.46
28000;BME280;15328;50.860;10.562;2024-03-17T07:39:32;97142.66;;;7.17;55.37
28000;BME280;15328;50.860;10.562;2024-03-17T07:44:32;97145.72;;;7.43;54.00
28000;BME280;15328;50.860;10.562;2024-03-17T07:49:35;97145.91;;;7.71;53.23
28000;BME280;15328;50.860;10.562;2024-03-17T07:54:36;97147.09;;;7.98;51.81
28000;BME280;15328;50.860;10.562;2024-03-17T07:59:37;97145.69;;;8.17;48.75
28000;BME280;15328;50.860;10.562;2024-03-17T08:04:38;97141.38;;;8.30;48.56
28000;BME280;15328;50.860;10.562;2024-03-17T08:09:39;97151.00;;;8.67;45.89
28000;BME280;15328;50.860;10.562;2024-03-17T08:14:39;97142.28;;;8.74;45.01
28000;BME280;15328;50.860;10.562;2024-03-17T08:19:40;97147.78;;;8.93;42.97
28000;BME280;15328;50.860;10.562;2024-03-17T08:24:41;97156.00;;;8.98;43.50
28000;BME280;15328;50.860;10.562;2024-03-17T08:29:42;97140.31;;;9.04;43.95
28000;BME280;15328;50.860;10.562;2024-03-17T08:34:46;97143.75;;;9.25;43.36
28000;BME280;15328;50.860;10.562;2024-03-17T08:39:47;97132.56;;;9.30;42.39
28000;BME280;15328;50.860;10.562;2024-03-17T08:44:47;97132.47;;;9.45;41.69
28000;BME280;15328;50.860;10.562;2024-03-17T08:49:50;97134.28;;;9.72;41.68
28000;BME280;15328;50.860;10.562;2024-03-17T08:54:51;97128.00;;;10.14;40.90
28000;BME280;15328;50.860;10.562;2024-03-17T08:59:51;97122.44;;;10.57;41.71
28000;BME280;15328;50.860;10.562;2024-03-17T09:04:55;97128.25;;;11.13;40.18
28000;BME280;15328;50.860;10.562;2024-03-17T09:09:55;97128.41;;;11.71;37.79
28000;BME280;15328;50.860;10.562;2024-03-17T09:14:55;97133.94;;;11.90;37.09
28000;BME280;15328;50.860;10.562;2024-03-17T09:19:56;97130.88;;;11.86;37.03
28000;BME280;15328;50.860;10.562;2024-03-17T09:24:57;97131.50;;;11.88;37.82
28000;BME280;15328;50.860;10.562;2024-03-17T09:29:57;97134.34;;;13.21;37.81
28000;BME280;15328;50.860;10.562;2024-03-17T09:34:58;97127.22;;;14.38;33.52
28000;BME280;15328;50.860;10.562;2024-03-17T09:39:59;97129.22;;;14.91;34.47
28000;BME280;15328;50.860;10.562;2024-03-17T09:45:00;97123.31;;;15.89;33.87
28000;BME280;15328;50.860;10.562;2024-03-17T09:50:01;97120.72;;;16.17;31.31
28000;BME280;15328;50.860;10.562;2024-03-17T09:55:09;97124.28;;;17.03;29.50
28000;BME280;15328;50.860;10.562;2024-03-17T10:00:14;97117.06;;;17.54;27.71
28000;BME280;15328;50.860;10.562;2024-03-17T10:05:22;97107.53;;;17.63;28.77
28000;BME280;15328;50.860;10.562;2024-03-17T10:10:23;97109.16;;;17.81;28.60
28000;BME280;15328;50.860;10.562;2024-03-17T10:15:24;97107.69;;;17.90;26.49
28000;BME280;15328;50.860;10.562;2024-03-17T10:20:25;97106.28;;;17.04;27.88
28000;BME280;15328;50.860;10.562;2024-03-17T10:25:28;97105.75;;;16.90;27.58
28000;BME280;15328;50.860;10.562;2024-03-17T10:30:28;97097.91;;;17.00;27.81
28000;BME280;15328;50.860;10.562;2024-03-17T10:35:36;97105.69;;;16.85;27.39
28000;BME280;15328;50.860;10.562;2024-03-17T10:40:41;97096.97;;;16.78;29.35
28000;BME280;15328;50.860;10.562;2024-03-17T10:45:42;97105.69;;;16.85;27.83
28000;BME280;15328;50.860;10.562;2024-03-17T10:50:43;97093.91;;;17.03;27.13
28000;BME280;15328;50.860;10.562;2024-03-17T10:55:48;97087.41;;;16.98;28.25
28000;BME280;15328;50.860;10.562;2024-03-17T11:00:50;97090.22;;;17.25;27.71
28000;BME280;15328;50.860;10.562;2024-03-17T11:05:51;97081.94;;;17.60;26.41
28000;BME280;15328;50.860;10.562;2024-03-17T11:10:53;97082.25;;;17.14;27.77
28000;BME280;15328;50.860;10.562;2024-03-17T11:15:56;97094.22;;;17.23;26.45
28000;BME280;15328;50.860;10.562;2024-03-17T11:21:05;97079.56;;;17.64;27.97
28000;BME280;15328;50.860;10.562;2024-03-17T11:26:10;97076.63;;;17.66;27.27
28000;BME280;15328;50.860;10.562;2024-03-17T11:31:37;97077.94;;;17.46;26.14
28000;BME280;15328;50.860;10.562;2024-03-17T11:36:40;97072.97;;;17.72;25.45
28000;BME280;15328;50.860;10.562;2024-03-17T11:41:44;97080.16;;;16.99;26.25
28000;BME280;15328;50.860;10.562;2024-03-17T11:46:58;97075.56;;;17.50;27.64
28000;BME280;15328;50.860;10.562;2024-03-17T11:52:00;97073.63;;;18.01;26.74
28000;BME280;15328;50.860;10.562;2024-03-17T11:57:06;97075.78;;;18.91;26.54
28000;BME280;15328;50.860;10.562;2024-03-17T12:02:14;97070.00;;;19.79;25.48
28000;BME280;15328;50.860;10.562;2024-03-17T12:07:18;97062.28;;;20.60;24.36
28000;BME280;15328;50.860;10.562;2024-03-17T12:12:20;97055.59;;;20.98;23.31
28000;BME280;15328;50.860;10.562;2024-03-17T12:17:22;97045.63;;;21.14;21.96
28000;BME280;15328;50.860;10.562;2024-03-17T12:22:24;97033.69;;;20.89;23.04
28000;BME280;15328;50.860;10.562;2024-03-17T12:27:26;97032.59;;;20.80;21.86
28000;BME280;15328;50.860;10.562;2024-03-17T12:32:26;97020.25;;;20.22;24.10
28000;BME280;15328;50.860;10.562;2024-03-17T12:37:27;97014.22;;;19.99;23.91
28000;BME280;15328;50.860;10.562;2024-03-17T12:42:34;97012.81;;;19.82;24.64
28000;BME280;15328;50.860;10.562;2024-03-17T12:47:37;97009.31;;;19.44;23.73
28000;BME280;15328;50.860;10.562;2024-03-17T12:52:38;97008.94;;;19.25;24.80
28000;BME280;15328;50.860;10.562;2024-03-17T12:57:38;97016.91;;;19.47;25.71
28000;BME280;15328;50.860;10.562;2024-03-17T13:02:58;97010.94;;;19.92;24.35
28000;BME280;15328;50.860;10.562;2024-03-17T13:07:58;96995.91;;;20.01;23.89
28000;BME280;15328;50.860;10.562;2024-03-17T13:13:08;97000.63;;;19.74;24.84
28000;BME280;15328;50.860;10.562;2024-03-17T13:18:09;96993.88;;;19.34;24.58
28000;BME280;15328;50.860;10.562;2024-03-17T13:23:09;96992.50;;;19.32;25.28
28000;BME280;15328;50.860;10.562;2024-03-17T13:28:10;96996.41;;;19.14;25.45
28000;BME280;15328;50.860;10.562;2024-03-17T13:33:11;96998.97;;;18.94;25.20
28000;BME280;15328;50.860;10.562;2024-03-17T13:38:12;96992.16;;;18.59;26.25
28000;BME280;15328;50.860;10.562;2024-03-17T13:43:12;96986.94;;;18.47;27.30
28000;BME280;15328;50.860;10.562;2024-03-17T13:48:12;96985.13;;;18.31;27.76
28000;BME280;15328;50.860;10.562;2024-03-17T13:53:13;96976.50;;;18.29;27.18
28000;BME280;15328;50.860;10.562;2024-03-17T13:58:14;96966.81;;;18.28;27.18
28000;BME280;15328;50.860;10.562;2024-03-17T14:03:14;96970.72;;;17.94;27.63
28000;BME280;15328;50.860;10.562;2024-03-17T14:08:15;96964.91;;;17.41;27.96
28000;BME280;15328;50.860;10.562;2024-03-17T14:13:15;96964.34;;;16.84;28.52
28000;BME280;15328;50.860;10.562;2024-03-17T14:18:15;96972.63;;;16.37;29.20
28000;BME280;15328;50.860;10.562;2024-03-17T14:23:16;96970.13;;;16.02;30.07
28000;BME280;15328;50.860;10.562;2024-03-17T14:28:17;96969.34;;;15.90;30.31
28000;BME280;15328;50.860;10.562;2024-03-17T14:33:18;96969.94;;;15.80;30.83
28000;BME280;15328;50.860;10.562;2024-03-17T14:38:19;96959.97;;;15.64;30.59
28000;BME280;15328;50.860;10.562;2024-03-17T14:43:20;96954.13;;;15.55;30.78
28000;BME280;15328;50.860;10.562;2024-03-17T14:48:20;96960.91;;;15.46;30.89
28000;BME280;15328;50.860;10.562;2024-03-17T14:53:21;96953.47;;;15.36;31.85
28000;BME280;15328;50.860;10.562;2024-03-17T14:58:21;96944.94;;;15.28;31.98
28000;BME280;15328;50.860;10.562;2024-03-17T15:03:21;96941.03;;;15.07;31.84
28000;BME280;15328;50.860;10.562;2024-03-17T15:08:22;96942.66;;;14.84;31.82
28000;BME280;15328;50.860;10.562;2024-03-17T15:13:22;96942.75;;;14.66;32.69
28000;BME280;15328;50.860;10.562;2024-03-17T15:18:23;96926.69;;;14.55;31.93
28000;BME280;15328;50.860;10.562;2024-03-17T15:23:24;96929.19;;;14.49;32.72
28000;BME280;15328;50.860;10.562;2024-03-17T15:28:32;96929.66;;;14.46;33.05
28000;BME280;15328;50.860;10.562;2024-03-17T15:33:33;96922.41;;;14.35;33.42
28000;BME280;15328;50.860;10.562;2024-03-17T15:38:37;96933.53;;;14.20;34.13
28000;BME280;15328;50.860;10.562;2024-03-17T15:43:38;96921.66;;;14.16;34.24
28000;BME280;15328;50.860;10.562;2024-03-17T15:48:39;96915.47;;;14.04;34.54
28000;BME280;15328;50.860;10.562;2024-03-17T15:53:40;96928.56;;;13.94;34.71
28000;BME280;15328;50.860;10.562;2024-03-17T15:58:40;96919.59;;;13.88;35.30
28000;BME280;15328;50.860;10.562;2024-03-17T16:03:43;96917.16;;;13.69;35.49
28000;BME280;15328;50.860;10.562;2024-03-17T16:08:45;96912.28;;;13.66;36.11
28000;BME280;15328;50.860;10.562;2024-03-17T16:13:47;96915.56;;;13.49;36.20
28000;BME280;15328;50.860;10.562;2024-03-17T16:18:47;96912.00;;;13.37;36.14
28000;BME280;15328;50.860;10.562;2024-03-17T16:23:55;96907.28;;;13.21;36.29
28000;BME280;15328;50.860;10.562;2024-03-17T16:28:59;96904.72;;;13.08;37.20
28000;BME280;15328;50.860;10.562;2024-03-17T16:34:00;96900.94;;;12.97;37.28
28000;BME280;15328;50.860;10.562;2024-03-17T16:39:02;96901.63;;;12.86;37.72
28000;BME280;15328;50.860;10.562;2024-03-17T16:44:08;96905.03;;;12.75;38.57
28000;BME280;15328;50.860;10.562;2024-03-17T16:49:11;96913.34;;;12.66;38.75
28000;BME280;15328;50.860;10.562;2024-03-17T16:54:13;96906.25;;;12.54;39.09
28000;BME280;15328;50.860;10.562;2024-03-17T16:59:14;96908.47;;;12.32;39.99
28000;BME280;15328;50.860;10.562;2024-03-17T17:04:15;96910.59;;;12.23;40.18
28000;BME280;15328;50.860;10.562;2024-03-17T17:09:15;96913.97;;;12.12;40.05
28000;BME280;15328;50.860;10.562;2024-03-17T17:14:16;96911.22;;;11.94;40.24
28000;BME280;15328;50.860;10.562;2024-03-17T17:19:16;96910.72;;;11.65;40.42
28000;BME280;15328;50.860;10.562;2024-03-17T17:24:18;96908.34;;;11.44;40.48
28000;BME280;15328;50.860;10.562;2024-03-17T17:29:23;96908.03;;;11.27;40.81
28000;BME280;15328;50.860;10.562;2024-03-17T17:34:23;96902.91;;;11.26;41.66
28000;BME280;15328;50.860;10.562;2024-03-17T17:39:24;96894.13;;;11.12;43.01
28000;BME280;15328;50.860;10.562;2024-03-17T17:44:24;96903.38;;;11.03;43.01
28000;BME280;15328;50.860;10.562;2024-03-17T17:49:26;96913.03;;;10.84;43.86
28000;BME280;15328;50.860;10.562;2024-03-17T17:54:26;96905.09;;;10.64;44.59
28000;BME280;15328;50.860;10.562;2024-03-17T17:59:27;96911.06;;;10.46;44.97
28000;BME280;15328;50.860;10.562;2024-03-17T18:04:28;96909.81;;;10.23;45.29
28000;BME280;15328;50.860;10.562;2024-03-17T18:09:29;96914.25;;;10.02;46.10
28000;BME280;15328;50.860;10.562;2024-03-17T18:14:29;96908.69;;;9.84;46.02
28000;BME280;15328;50.860;10.562;2024-03-17T18:19:29;96920.72;;;9.60;46.79
28000;BME280;15328;50.860;10.562;2024-03-17T18:24:30;96910.22;;;9.45;47.39
28000;BME280;15328;50.860;10.562;2024-03-17T18:29:30;96909.94;;;9.27;47.77
28000;BME280;15328;50.860;10.562;2024-03-17T18:34:30;96911.56;;;9.21;47.76
28000;BME280;15328;50.860;10.562;2024-03-17T18:39:31;96914.81;;;9.17;47.79
28000;BME280;15328;50.860;10.562;2024-03-17T18:44:31;96908.84;;;9.08;48.31
28000;BME280;15328;50.860;10.562;2024-03-17T18:49:32;96916.72;;;8.95;48.56
28000;BME280;15328;50.860;10.562;2024-03-17T18:54:32;96916.94;;;8.93;48.80
28000;BME280;15328;50.860;10.562;2024-03-17T18:59:32;96917.28;;;8.84;48.92
28000;BME280;15328;50.860;10.562;2024-03-17T19:04:36;96912.50;;;8.73;49.48
28000;BME280;15328;50.860;10.562;2024-03-17T19:09:42;96905.84;;;8.77;49.13
28000;BME280;15328;50.860;10.562;2024-03-17T19:14:43;96912.13;;;8.76;49.65
28000;BME280;15328;50.860;10.562;2024-03-17T19:19:43;96913.94;;;8.75;49.22
28000;BME280;15328;50.860;10.562;2024-03-17T19:24:46;96920.28;;;8.74;49.49
28000;BME280;15328;50.860;10.562;2024-03-17T19:29:51;96912.91;;;8.70;49.71
28000;BME280;15328;50.860;10.562;2024-03-17T19:34:51;96912.72;;;8.71;49.67
28000;BME280;15328;50.860;10.562;2024-03-17T19:39:53;96909.59;;;8.61;50.09
28000;BME280;15328;50.860;10.562;2024-03-17T19:44:54;96904.72;;;8.64;50.15
28000;BME280;15328;50.860;10.562;2024-03-17T19:49:55;96901.84;;;8.59;50.25
28000;BME280;15328;50.860;10.562;2024-03-17T19:54:56;96895.75;;;8.65;50.68
28000;BME280;15328;50.860;10.562;2024-03-17T19:59:56;96896.56;;;8.66;50.70
28000;BME280;15328;50.860;10.562;2024-03-17T20:04:56;96897.22;;;8.75;50.23
28000;BME280;15328;50.860;10.562;2024-03-17T20:09:57;96896.75;;;8.64;50.38
28000;BME280;15328;50.860;10.562;2024-03-17T20:14:58;96890.19;;;8.54;50.72
28000;BME280;15328;50.860;10.562;2024-03-17T20:19:58;96897.44;;;8.45;51.04
28000;BME280;15328;50.860;10.562;2024-03-17T20:24:58;96893.97;;;8.45;50.81
28000;BME280;15328;50.860;10.562;2024-03-17T20:30:03;96889.28;;;8.47;51.25
28000;BME280;15328;50.860;10.562;2024-03-17T20:35:03;96888.09;;;8.49;51.23
28000;BME280;15328;50.860;10.562;2024-03-17T20:40:04;96882.97;;;8.48;51.01
28000;BME280;15328;50.860;10.562;2024-03-17T20:45:08;96872.19;;;8.49;50.95
28000;BME280;15328;50.860;10.562;2024-03-17T20:50:09;96871.84;;;8.59;50.94
28000;BME280;15328;50.860;10.562;2024-03-17T20:55:17;96862.44;;;8.56;51.64
28000;BME280;15328;50.860;10.562;2024-03-17T21:00:20;96863.69;;;8.60;51.66
28000;BME280;15328;50.860;10.562;2024-03-17T21:05:25;96852.47;;;8.58;51.85
28000;BME280;15328;50.860;10.562;2024-03-17T21:10:26;96861.19;;;8.52;51.78
28000;BME280;15328;50.860;10.562;2024-03-17T21:15:26;96851.97;;;8.48;51.96
28000;BME280;15328;50.860;10.562;2024-03-17T21:20:27;96847.94;;;8.52;51.76
28000;BME280;15328;50.860;10.562;2024-03-17T21:25:27;96835.44;;;8.46;52.04
28000;BME280;15328;50.860;10.562;2024-03-17T21:30:27;96828.09;;;8.48;52.09
28000;BME280;15328;50.860;10.562;2024-03-17T21:35:28;96834.81;;;8.44;51.73
28000;BME280;15328;50.860;10.562;2024-03-17T21:40:28;96832.34;;;8.43;52.13
28000;BME280;15328;50.860;10.562;2024-03-17T21:45:29;96821.09;;;8.34;52.06
28000;BME280;15328;50.860;10.562;2024-03-17T21:50:29;96814.31;;;8.31;51.84
28000;BME280;15328;50.860;10.562;2024-03-17T21:55:29;96814.53;;;8.30;52.24
28000;BME280;15328;50.860;10.562;2024-03-17T22:00:30;96817.06;;;8.17;52.27
28000;BME280;15328;50.860;10.562;2024-03-17T22:05:30;96814.81;;;8.14;52.46
28000;BME280;15328;50.860;10.562;2024-03-17T22:10:30;96805.22;;;8.13;52.56
28000;BME280;15328;50.860;10.562;2024-03-17T22:15:31;96805.19;;;8.06;52.48
28000;BME280;15328;50.860;10.562;2024-03-17T22:20:31;96805.97;;;8.00;52.41
28000;BME280;15328;50.860;10.562;2024-03-17T22:25:32;96808.66;;;8.06;52.07
28000;BME280;15328;50.860;10.562;2024-03-17T22:30:32;96811.94;;;7.87;52.49
28000;BME280;15328;50.860;10.562;2024-03-17T22:35:33;96799.03;;;7.78;52.53
28000;BME280;15328;50.860;10.562;2024-03-17T22:40:33;96794.38;;;7.80;52.64
28000;BME280;15328;50.860;10.562;2024-03-17T22:45:34;96788.88;;;7.81;52.33
28000;BME280;15328;50.860;10.562;2024-03-17T22:50:35;96776.41;;;7.75;52.35
28000;BME280;15328;50.860;10.562;2024-03-17T22:55:35;96769.88;;;7.50;53.10
28000;BME280;15328;50.860;10.562;2024-03-17T23:00:38;96768.09;;;7.57;52.69
28000;BME280;15328;50.860;10.562;2024-03-17T23:05:42;96762.94;;;7.49;52.78
28000;BME280;15328;50.860;10.562;2024-03-17T23:10:42;96750.91;;;7.46;52.70
28000;BME280;15328;50.860;10.562;2024-03-17T23:15:44;96745.31;;;7.34;53.12
28000;BME280;15328;50.860;10.562;2024-03-17T23:20:45;96744.88;;;7.31;53.42
28000;BME280;15328;50.860;10.562;2024-03-17T23:25:45;96745.00;;;7.23;53.72
28000;BME280;15328;50.860;10.562;2024-03-17T23:30:47;96750.63;;;7.13;53.77
28000;BME280;15328;50.860;10.562;2024-03-17T23:35:47;96744.03;;;7.09;54.03
28000;BME280;15328;50.860;10.562;2024-03-17T23:40:51;96741.91;;;7.19;53.09
28000;BME280;15328;50.860;10.562;2024-03-17T23:45:51;96739.88;;;7.00;53.56
28000;BME280;15328;50.860;10.562;2024-03-17T23:50:52;96736.16;;;6.94;53.86
28000;BME280;15328;50.860;10.562;2024-03-17T23:55:52;96732.25;;;6.90;54.61
